Time;durP1;ratioP1;P1;durP2;ratioP2;P2;SDS_P1;SDS_P2;PMS_P1;PMS_P2;Temp;Humidity;BMP_temperature;BMP_pressure;BME280_temperature;BME280_humidity;BME280_pressure;Samples;Min_cycle;Max_cycle;Signal;HPM_P1;HPM_P2
2022/12/16 00:00:11;;;;;;;1999.90;999.90;;;-6.20;99.90;;;;;;5047694;28;20469;-66
2022/12/16 00:02:37;;;;;;;1999.90;999.90;;;-6.20;99.90;;;;;;5049840;28;20459;-66
2022/12/16 00:05:06;;;;;;;1999.90;999.90;;;-6.20;99.90;;;;;;5047027;28;20481;-66
2022/12/16 00:07:33;;;;;;;1999.90;999.90;;;-6.30;99.90;;;;;;5046570;28;20486;-67
2022/12/16 00:10:00;;;;;;;1999.90;999.90;;;-6.30;99.90;;;;;;5043834;28;20482;-66
2022/12/16 00:12:27;;;;;;;1999.90;999.90;;;-6.40;99.90;;;;;;5049020;28;20478;-66
2022/12/16 00:14:53;;;;;;;1999.90;999.90;;;-6.30;99.90;;;;;;5047607;28;20462;-65
2022/12/16 00:17:20;;;;;;;1999.90;999.90;;;-6.20;99.90;;;;;;5048681;28;20458;-66
2022/12/16 00:19:47;;;;;;;1999.90;999.90;;;-6.20;99.90;;;;;;5046267;28;20457;-66
2022/12/16 00:22:15;;;;;;;1999.90;999.90;;;-6.30;99.90;;;;;;5067664;28;20452;-67
2022/12/16 00:24:42;;;;;;;1999.90;999.90;;;-6.40;99.90;;;;;;5055392;28;20450;-67
2022/12/16 00:27:08;;;;;;;1999.90;999.90;;;-6.40;99.90;;;;;;5050201;28;20454;-66
2022/12/16 00:29:35;;;;;;;1999.90;999.90;;;-6.40;99.90;;;;;;5042170;28;20450;-66
2022/12/16 00:32:02;;;;;;;1999.90;999.90;;;-6.60;99.90;;;;;;5040301;28;20440;-66
2022/12/16 00:34:29;;;;;;;1999.90;999.90;;;-6.40;99.90;;;;;;5043991;28;20959;-67
2022/12/16 00:36:56;;;;;;;1999.90;999.90;;;-6.30;99.90;;;;;;5046511;28;20465;-66
2022/12/16 00:39:24;;;;;;;1999.90;999.90;;;-6.20;99.90;;;;;;5047504;28;20481;-66
2022/12/16 00:41:51;;;;;;;1999.90;999.90;;;-6.10;99.90;;;;;;5051029;28;20462;-66
2022/12/16 00:44:17;;;;;;;1999.90;999.90;;;-6.10;99.90;;;;;;5043783;28;20463;-66
2022/12/16 00:46:44;;;;;;;1999.90;999.90;;;-6.10;99.90;;;;;;5047955;28;20466;-66
2022/12/16 00:49:11;;;;;;;1999.90;999.90;;;-6.20;99.90;;;;;;5052793;28;20481;-66
2022/12/16 00:51:38;;;;;;;1999.90;999.90;;;-6.20;99.90;;;;;;5039450;28;20486;-66
2022/12/16 00:54:04;;;;;;;1999.90;999.90;;;-6.30;99.90;;;;;;5050370;28;20958;-67
2022/12/16 00:56:32;;;;;;;1999.90;999.90;;;-6.30;99.90;;;;;;5050054;28;20458;-66
2022/12/16 00:58:59;;;;;;;1999.90;999.90;;;-6.30;99.90;;;;;;5048491;28;20481;-66
2022/12/16 01:01:26;;;;;;;1999.90;999.90;;;-6.40;99.90;;;;;;5045233;28;20454;-65
2022/12/16 01:03:56;;;;;;;1999.90;999.90;;;-6.30;99.90;;;;;;5047389;28;20469;-66
2022/12/16 01:06:23;;;;;;;1999.90;999.90;;;-6.30;99.90;;;;;;5047931;28;21032;-67
2022/12/16 01:08:49;;;;;;;1999.90;999.90;;;-6.30;99.90;;;;;;5049533;28;20868;-66
2022/12/16 01:11:17;;;;;;;1999.90;999.90;;;-6.30;99.90;;;;;;5048157;28;20513;-66
2022/12/16 01:13:49;;;;;;;1999.90;999.90;;;-6.30;99.90;;;;;;5043860;28;20466;-66
2022/12/16 01:16:16;;;;;;;1999.90;999.90;;;-6.30;99.90;;;;;;5051487;28;20462;-67
2022/12/16 01:18:42;;;;;;;1999.90;999.90;;;-6.20;99.90;;;;;;5048689;28;20488;-67
2022/12/16 01:21:13;;;;;;;1999.90;999.90;;;-6.10;99.90;;;;;;5050050;28;20455;-66
2022/12/16 01:23:39;;;;;;;1999.90;999.90;;;-6.00;99.90;;;;;;5050154;28;20958;-66
2022/12/16 01:26:06;;;;;;;1999.90;999.90;;;-6.10;99.90;;;;;;5053141;28;21231;-66
2022/12/16 01:28:33;;;;;;;1999.90;999.90;;;-6.10;99.90;;;;;;5052755;28;20478;-67
2022/12/16 01:31:01;;;;;;;1999.90;999.90;;;-6.20;99.90;;;;;;5051746;28;20486;-66
2022/12/16 01:33:28;;;;;;;1999.90;999.90;;;-6.20;99.90;;;;;;5049908;28;20462;-66
2022/12/16 01:36:00;;;;;;;1999.90;999.90;;;-6.20;99.90;;;;;;5057310;28;21012;-66
2022/12/16 01:38:26;;;;;;;1999.90;999.90;;;-6.30;99.90;;;;;;5052482;28;20481;-65
2022/12/16 01:40:53;;;;;;;1999.90;999.90;;;-6.30;99.90;;;;;;5047859;28;20462;-66
2022/12/16 01:43:24;;;;;;;1999.90;999.90;;;-6.30;99.90;;;;;;5051016;28;20833;-67
2022/12/16 01:45:52;;;;;;;1999.90;999.90;;;-6.30;99.90;;;;;;5050064;28;20465;-66
2022/12/16 01:48:30;;;;;;;1999.90;999.90;;;-6.40;99.90;;;;;;5051568;28;20497;-65
2022/12/16 01:51:02;;;;;;;1999.90;999.90;;;-6.40;99.90;;;;;;5050064;28;20482;-67
2022/12/16 01:53:30;;;;;;;1999.90;999.90;;;-6.40;99.90;;;;;;5053799;28;20458;-66
2022/12/16 01:55:58;;;;;;;1999.90;999.90;;;-6.40;99.90;;;;;;5051661;28;20462;-66
2022/12/16 01:58:30;;;;;;;1999.90;999.90;;;-6.50;99.90;;;;;;5052303;28;20476;-65
2022/12/16 02:00:56;;;;;;;1999.90;999.90;;;-6.50;99.90;;;;;;5047140;28;20489;-66
2022/12/16 02:03:25;;;;;;;1999.90;999.90;;;-6.60;99.90;;;;;;5047665;28;20473;-67
2022/12/16 02:05:53;;;;;;;1999.90;999.90;;;-6.70;99.90;;;;;;5052313;28;20839;-67
2022/12/16 02:08:20;;;;;;;1999.90;999.90;;;-6.70;99.90;;;;;;5055748;28;20485;-67
2022/12/16 02:11:06;;;;;;;1999.90;999.90;;;-6.70;99.90;;;;;;5051573;28;20485;-67
2022/12/16 02:13:40;;;;;;;1999.90;999.90;;;-6.80;99.90;;;;;;5047624;28;20464;-66
2022/12/16 02:16:16;;;;;;;1999.90;999.90;;;-6.80;99.90;;;;;;5050990;28;20977;-65
2022/12/16 02:18:52;;;;;;;1999.90;999.90;;;-6.80;99.90;;;;;;5049803;28;20489;-67
2022/12/16 02:21:32;;;;;;;1999.90;999.90;;;-6.80;99.90;;;;;;5051720;28;20458;-66
2022/12/16 02:24:32;;;;;;;1999.90;999.90;;;-6.80;99.90;;;;;;5056422;28;20981;-67
2022/12/16 02:27:31;;;;;;;1999.90;999.90;;;-6.80;99.90;;;;;;5053053;28;20458;-66
2022/12/16 02:30:12;;;;;;;1999.90;999.90;;;-6.80;99.90;;;;;;5046619;28;20462;-66
2022/12/16 02:32:50;;;;;;;1999.90;999.90;;;-6.70;99.90;;;;;;5051099;28;20451;-67
2022/12/16 02:35:25;;;;;;;1999.90;999.90;;;-6.80;99.90;;;;;;5050127;28;20847;-67
2022/12/16 02:38:00;;;;;;;1999.90;999.90;;;-6.80;99.90;;;;;;5048070;28;20848;-66
2022/12/16 02:40:34;;;;;;;1999.90;999.90;;;-6.80;99.90;;;;;;5049645;28;20454;-66
2022/12/16 02:43:07;;;;;;;1999.90;999.90;;;-6.70;99.90;;;;;;5052571;28;20536;-66
2022/12/16 02:45:35;;;;;;;1999.90;999.90;;;-6.70;99.90;;;;;;5050043;28;20832;-67
2022/12/16 02:48:03;;;;;;;1999.90;999.90;;;-6.80;99.90;;;;;;5051544;28;21052;-66
2022/12/16 02:50:35;;;;;;;1999.90;999.90;;;-6.90;99.90;;;;;;5043513;28;20541;-68
2022/12/16 02:53:04;;;;;;;1999.90;999.90;;;-6.80;99.90;;;;;;5051484;28;20465;-66
2022/12/16 02:55:41;;;;;;;1999.90;999.90;;;-6.80;99.90;;;;;;5047388;28;20459;-67
2022/12/16 02:58:16;;;;;;;1999.90;999.90;;;-6.80;99.90;;;;;;5050990;28;20481;-67
2022/12/16 03:00:53;;;;;;;1999.90;999.90;;;-6.80;99.90;;;;;;5051492;28;20447;-66
2022/12/16 03:03:27;;;;;;;1999.90;999.90;;;-6.80;99.90;;;;;;5050884;28;20954;-67
2022/12/16 03:05:56;;;;;;;1999.90;999.90;;;-6.90;99.90;;;;;;5046532;28;20472;-66
2022/12/16 03:08:29;;;;;;;1999.90;999.90;;;-6.90;99.90;;;;;;5054785;28;20481;-67
2022/12/16 03:10:59;;;;;;;1999.90;999.90;;;-6.90;99.90;;;;;;5046595;28;20481;-65
2022/12/16 03:13:29;;;;;;;1999.90;999.90;;;-6.90;99.90;;;;;;5052219;28;20466;-67
2022/12/16 03:16:00;;;;;;;1999.90;999.90;;;-6.90;99.90;;;;;;5051349;28;20462;-67
2022/12/16 03:18:28;;;;;;;1999.90;999.90;;;-7.00;99.90;;;;;;5057162;28;20496;-67
2022/12/16 03:21:00;;;;;;;1999.90;999.90;;;-7.00;99.90;;;;;;5044008;28;20466;-67
2022/12/16 03:23:33;;;;;;;1999.90;999.90;;;-7.20;99.90;;;;;;5047787;28;20463;-65
2022/12/16 03:26:06;;;;;;;1999.90;999.90;;;-7.20;99.90;;;;;;5050872;28;20467;-67
2022/12/16 03:28:41;;;;;;;1999.90;999.90;;;-7.20;99.90;;;;;;5052330;28;20482;-67
2022/12/16 03:31:17;;;;;;;1999.90;999.90;;;-6.80;99.90;;;;;;5047105;28;20492;-67
2022/12/16 03:33:49;;;;;;;1999.90;999.90;;;-7.10;99.90;;;;;;5053880;28;20450;-68
2022/12/16 03:36:20;;;;;;;1999.90;999.90;;;-7.10;99.90;;;;;;5050193;28;20204;-67
2022/12/16 03:38:47;;;;;;;1999.90;999.90;;;-7.10;99.90;;;;;;5050944;28;20840;-68
2022/12/16 03:41:16;;;;;;;1999.90;999.90;;;-7.00;99.90;;;;;;5042266;28;20475;-67
2022/12/16 03:43:43;;;;;;;1999.90;999.90;;;-7.10;99.90;;;;;;5050363;28;20481;-67
2022/12/16 03:46:11;;;;;;;1999.90;999.90;;;-7.20;99.90;;;;;;5054468;28;20497;-67
2022/12/16 03:48:47;;;;;;;1999.90;999.90;;;-7.20;99.90;;;;;;5052000;28;20482;-64
2022/12/16 03:51:14;;;;;;;1999.90;999.90;;;-7.10;99.90;;;;;;5049939;28;20474;-67
2022/12/16 03:53:41;;;;;;;1999.90;999.90;;;-7.00;99.90;;;;;;5050208;28;20462;-67
2022/12/16 03:56:08;;;;;;;1999.90;999.90;;;-7.00;99.90;;;;;;5052398;28;20470;-66
2022/12/16 03:58:36;;;;;;;1999.90;999.90;;;-7.00;99.90;;;;;;5050394;28;20482;-67
2022/12/16 04:01:03;;;;;;;1999.90;999.90;;;-7.00;99.90;;;;;;5041828;28;20454;-67
2022/12/16 04:03:30;;;;;;;1999.90;999.90;;;-6.80;99.90;;;;;;5051001;28;20458;-67
2022/12/16 04:05:58;;;;;;;1999.90;999.90;;;-6.90;99.90;;;;;;5049708;28;20469;-67
2022/12/16 04:08:25;;;;;;;1999.90;999.90;;;-6.70;99.90;;;;;;5051050;28;20477;-65
2022/12/16 04:24:35;;;;;;;1999.90;999.90;;;-6.60;99.90;;;;;;5050311;28;20449;-66
2022/12/16 04:34:24;;;;;;;1999.90;999.90;;;-6.90;99.90;;;;;;5050452;28;20560;-68
